Sierra Blanca Regional Airport
KSRR : rendu visible

Aérodrome :











RETROUVEZ-NOUS SUR...

 
LOGIN :

S'inscrire | Disclaimer

   EN    FR    IT 

 









Légende :    VFR   VFR Marginal   IFR   IFR Intensif   IFR Très Intensif
Visi : 
Plafond : 
>= 8 km
>= 3000ft
5 à 8 km
1000 à 3000 ft
1500m à 5 km
500 à 1000 ft
800 à 1500m
200 à 500 ft
< 800m
< 200 ft
Symboles :   Orages  Brouillard  Fortes neiges  Fortes précipitations  Vent > 20 kt






- Altitude de l'aérodrome : 6814 ft


KSRR - Sierra Blanca Regional

DERNIER METAR :
  • 221715Z AUTO 30011G19KT 260V320 10SM CLR 24/00 A3034 RMK AO2

METARs EXPIRÉS :
  • 221655Z AUTO 31011G16KT 10SM CLR 24/00 A3035 RMK AO2
  • 221635Z AUTO 31009KT 10SM CLR 24/02 A3035 RMK AO2
  • 221615Z AUTO 03004KT 10SM CLR 23/02 A3036 RMK AO2
  • 221555Z AUTO 02003KT 10SM CLR 22/03 A3036 RMK AO2
  • 221535Z AUTO 27004KT 10SM CLR 21/01 A3035 RMK AO2
  • 221515Z AUTO 27004KT 10SM CLR 20/02 A3035 RMK AO2
  • 221455Z AUTO 24004KT 10SM CLR 19/01 A3035 RMK AO2
  • 221435Z AUTO 24004KT 10SM CLR 18/01 A3035 RMK AO2

TAF N/A
FIR KZAB / Amérique du Nord



MET'MAP, la Météo Aéronautique d'un coup d'oeil ! - Copyright ORBIFLY Décembre 2007 - Disclaimer

ORBIFLY MET'MAP TEAM :

Programmation & Développement : Alexandra Zaïnal
Sur une idée originale de : Baudouin d'Aumeries
Assistance à la programmation : Marc-Olivier Méhu
Soutien technique & logistique : Manuel Goepfert

Contact : metmap@orbifly.com




SOURCES & CREDITS :

   NOAA       Earth
Advisory